createdAt,value
2019-05-19T00:00:27.592Z,99.05
2019-05-19T00:02:56.116Z,98.05
2019-05-19T00:05:24.669Z,96.85
2019-05-19T00:07:53.213Z,93.25
2019-05-19T00:10:21.757Z,100.90
2019-05-19T00:12:50.231Z,95.83
2019-05-19T00:15:19.069Z,97.57
2019-05-19T00:17:47.611Z,101.02
2019-05-19T00:20:16.394Z,98.15
2019-05-19T00:22:48.623Z,108.30
2019-05-19T00:25:17.130Z,97.27
2019-05-19T00:27:45.686Z,93.82
2019-05-19T00:30:14.679Z,96.02
2019-05-19T00:32:43.362Z,94.67
2019-05-19T00:35:11.971Z,99.28
2019-05-19T00:37:40.511Z,93.20
2019-05-19T00:40:09.132Z,92.22
2019-05-19T00:42:38.059Z,96.37
2019-05-19T00:45:08.371Z,100.42
2019-05-19T00:47:36.978Z,96.28
2019-05-19T00:50:07.368Z,96.47
2019-05-19T00:52:35.990Z,92.00
2019-05-19T00:55:05.621Z,95.67
2019-05-19T00:57:36.302Z,87.37
2019-05-19T01:00:07.969Z,91.45
2019-05-19T01:02:36.500Z,98.37
2019-05-19T01:05:08.164Z,94.25
2019-05-19T01:07:36.772Z,101.87
2019-05-19T01:10:09.156Z,101.38
2019-05-19T01:12:38.053Z,90.50
2019-05-19T01:15:08.970Z,101.47
2019-05-19T01:17:37.520Z,105.22
2019-05-19T01:20:07.537Z,95.30
2019-05-19T01:22:36.479Z,93.58
2019-05-19T01:25:07.054Z,99.00
2019-05-19T01:27:35.595Z,97.95
2019-05-19T01:30:07.163Z,107.70
2019-05-19T01:32:35.632Z,106.17
2019-05-19T01:35:04.844Z,107.00
2019-05-19T01:37:33.438Z,100.65
2019-05-19T01:40:02.146Z,113.77
2019-05-19T01:42:31.003Z,99.77
2019-05-19T01:44:59.587Z,112.00
2019-05-19T01:47:28.117Z,110.88
2019-05-19T01:50:16.532Z,108.63
2019-05-19T01:52:27.366Z,106.05
2019-05-19T01:54:55.858Z,111.32
2019-05-19T01:57:24.342Z,105.45
2019-05-19T01:59:52.805Z,106.75
2019-05-19T02:02:21.374Z,111.70
2019-05-19T02:04:50.173Z,110.37
2019-05-19T02:07:18.716Z,108.22
2019-05-19T02:09:47.211Z,114.90
2019-05-19T02:12:15.694Z,114.05
2019-05-19T02:14:44.206Z,113.70
2019-05-19T02:17:12.773Z,114.20
2019-05-19T02:19:41.277Z,111.12
2019-05-19T02:22:09.844Z,116.65
2019-05-19T02:24:38.308Z,110.60
2019-05-19T02:27:06.837Z,123.00
2019-05-19T02:29:35.331Z,115.75
2019-05-19T02:32:03.876Z,126.58
2019-05-19T02:34:32.870Z,119.35
2019-05-19T02:37:01.429Z,117.65
2019-05-19T02:39:29.965Z,120.92
2019-05-19T02:42:00.321Z,119.77
2019-05-19T02:44:30.032Z,123.87
2019-05-19T02:47:00.735Z,120.90
2019-05-19T02:49:32.633Z,117.50
2019-05-19T02:52:03.486Z,118.70
2019-05-19T02:54:33.523Z,108.90
2019-05-19T02:57:03.754Z,111.68
2019-05-19T02:59:33.053Z,109.52
2019-05-19T03:02:08.587Z,118.15
2019-05-19T03:04:37.372Z,111.77
2019-05-19T03:07:05.918Z,111.42
2019-05-19T03:09:34.469Z,124.30
2019-05-19T03:12:03.088Z,110.12
2019-05-19T03:14:31.568Z,123.40
2019-05-19T03:17:00.079Z,114.92
2019-05-19T03:19:28.626Z,122.60
2019-05-19T03:21:57.186Z,127.42
2019-05-19T03:24:25.680Z,112.12
2019-05-19T03:26:54.170Z,114.32
2019-05-19T03:29:24.382Z,120.20
2019-05-19T03:31:57.333Z,118.60
2019-05-19T03:34:26.961Z,124.38
2019-05-19T03:36:55.885Z,118.80
2019-05-19T03:39:24.683Z,129.57
2019-05-19T03:41:53.255Z,133.10
2019-05-19T03:44:21.739Z,136.22
2019-05-19T03:46:50.231Z,137.30
2019-05-19T03:49:18.779Z,123.78
2019-05-19T03:51:47.275Z,138.30
2019-05-19T03:54:16.089Z,138.50
2019-05-19T03:56:44.589Z,134.10
2019-05-19T03:59:15.472Z,135.55
2019-05-19T04:01:44.011Z,131.03
2019-05-19T04:04:12.542Z,134.22
2019-05-19T04:06:41.098Z,132.20
2019-05-19T04:09:09.651Z,145.35
2019-05-19T04:11:38.200Z,140.18
2019-05-19T04:14:06.654Z,138.22
2019-05-19T04:16:35.137Z,139.18
2019-05-19T04:19:03.619Z,143.10
2019-05-19T04:21:47.604Z,136.60
2019-05-19T04:24:02.693Z,150.68
2019-05-19T04:26:31.228Z,139.72
2019-05-19T04:28:59.724Z,152.57
2019-05-19T04:31:28.299Z,149.02
2019-05-19T04:33:56.811Z,145.68
2019-05-19T04:36:27.545Z,142.07
2019-05-19T04:38:56.081Z,149.62
2019-05-19T04:41:24.577Z,144.40
2019-05-19T04:43:53.042Z,156.82
2019-05-19T04:46:21.545Z,144.10
2019-05-19T04:48:50.113Z,161.20
2019-05-19T04:51:18.653Z,150.72
2019-05-19T04:53:47.225Z,157.67
2019-05-19T04:56:19.489Z,146.62
2019-05-19T04:58:45.923Z,154.47
2019-05-19T05:01:14.764Z,152.30
2019-05-19T05:03:43.230Z,150.75
2019-05-19T05:06:11.730Z,145.70
2019-05-19T05:08:40.490Z,145.00
2019-05-19T05:11:09.066Z,147.70
2019-05-19T05:13:37.544Z,149.50
2019-05-19T05:16:06.020Z,150.68
2019-05-19T05:18:34.641Z,143.87
2019-05-19T05:21:03.146Z,149.77
2019-05-19T05:23:31.604Z,148.57
2019-05-19T05:26:01.068Z,150.32
2019-05-19T05:28:29.561Z,152.57
2019-05-19T05:30:58.151Z,151.93
2019-05-19T05:33:26.700Z,146.32
2019-05-19T05:35:57.167Z,159.95
2019-05-19T05:38:25.929Z,151.05
2019-05-19T05:40:56.702Z,145.68
2019-05-19T05:43:24.592Z,146.93
2019-05-19T05:45:53.076Z,150.45
2019-05-19T05:48:21.545Z,154.85
2019-05-19T05:50:50.181Z,151.65
2019-05-19T05:53:18.719Z,154.85
2019-05-19T05:55:47.254Z,155.07
2019-05-19T05:58:15.736Z,149.20
2019-05-19T06:00:44.211Z,166.35
2019-05-19T06:03:12.766Z,154.38
2019-05-19T06:05:41.235Z,154.10
2019-05-19T06:08:09.779Z,144.40
2019-05-19T06:10:38.264Z,148.53
2019-05-19T06:13:06.742Z,149.00
2019-05-19T06:15:35.386Z,147.93
2019-05-19T06:18:04.283Z,149.40
2019-05-19T06:20:32.832Z,142.30
2019-05-19T06:23:01.387Z,157.67
2019-05-19T06:25:29.989Z,153.25
2019-05-19T06:27:58.551Z,149.10
2019-05-19T06:30:28.567Z,151.65
2019-05-19T06:32:58.759Z,154.27
2019-05-19T06:35:27.257Z,155.85
2019-05-19T06:37:55.909Z,150.85
2019-05-19T06:40:24.483Z,156.00
2019-05-19T06:42:53.112Z,151.00
2019-05-19T06:45:21.855Z,152.78
2019-05-19T06:47:50.525Z,150.15
2019-05-19T06:50:19.388Z,149.32
2019-05-19T06:52:47.918Z,148.93
2019-05-19T06:55:16.666Z,152.80
2019-05-19T06:57:45.122Z,150.87
2019-05-19T07:00:13.998Z,141.40
2019-05-19T07:02:42.501Z,149.82
2019-05-19T07:05:11.216Z,136.65
2019-05-19T07:07:39.800Z,153.27
2019-05-19T07:10:08.929Z,142.07
2019-05-19T07:12:37.457Z,149.80
2019-05-19T07:15:06.903Z,147.13
2019-05-19T07:17:35.447Z,146.68
2019-05-19T07:20:05.932Z,144.07
2019-05-19T07:22:37.451Z,142.57
2019-05-19T07:25:06.519Z,148.90
2019-05-19T07:27:34.985Z,139.05
2019-05-19T07:30:07.730Z,145.65
2019-05-19T07:32:36.214Z,152.90
2019-05-19T07:35:06.533Z,142.00
2019-05-19T07:37:35.019Z,150.55
2019-05-19T07:40:04.553Z,144.10
2019-05-19T07:42:33.166Z,150.90
2019-05-19T07:45:01.981Z,152.75
2019-05-19T07:47:30.568Z,140.40
2019-05-19T07:49:59.066Z,153.87
2019-05-19T07:52:27.618Z,152.00
2019-05-19T07:54:56.165Z,149.77
2019-05-19T07:57:24.654Z,147.15
2019-05-19T07:59:53.707Z,141.53
2019-05-19T08:02:22.217Z,141.73
2019-05-19T08:04:50.766Z,136.43
2019-05-19T08:07:21.301Z,146.57
2019-05-19T08:09:49.458Z,127.07
2019-05-19T08:12:17.949Z,143.52
2019-05-19T08:14:46.419Z,128.97
2019-05-19T08:17:14.911Z,140.25
2019-05-19T08:19:43.484Z,142.10
2019-05-19T08:22:12.040Z,130.97
2019-05-19T08:24:40.568Z,139.43
2019-05-19T08:27:09.159Z,138.35
2019-05-19T08:29:37.655Z,135.80
2019-05-19T08:32:06.164Z,140.50
2019-05-19T08:34:34.733Z,136.95
2019-05-19T08:37:03.405Z,139.52
2019-05-19T08:39:31.910Z,136.50
2019-05-19T08:42:00.458Z,127.55
2019-05-19T08:44:30.597Z,126.12
2019-05-19T08:46:59.066Z,130.00
2019-05-19T08:49:27.598Z,131.72
2019-05-19T08:51:56.112Z,133.75
2019-05-19T08:54:24.593Z,127.65
2019-05-19T08:56:53.082Z,118.25
2019-05-19T08:59:21.560Z,125.78
2019-05-19T09:01:50.028Z,123.47
2019-05-19T09:04:18.607Z,116.65
2019-05-19T09:06:47.228Z,115.70
2019-05-19T09:09:15.744Z,121.17
2019-05-19T09:11:44.299Z,115.15
2019-05-19T09:14:13.367Z,113.75
2019-05-19T09:16:41.921Z,110.95
2019-05-19T09:19:10.405Z,113.75
2019-05-19T09:21:38.974Z,114.03
2019-05-19T09:24:07.883Z,112.72
2019-05-19T09:26:36.383Z,106.40
2019-05-19T09:29:05.007Z,113.00
2019-05-19T09:31:33.490Z,100.30
2019-05-19T09:34:02.144Z,109.40
2019-05-19T09:36:30.622Z,107.27
2019-05-19T09:38:59.137Z,107.50
2019-05-19T09:41:27.705Z,91.67
2019-05-19T09:43:56.201Z,90.07
2019-05-19T09:46:24.767Z,91.17
2019-05-19T09:48:55.254Z,87.33
2019-05-19T09:51:23.738Z,88.35
2019-05-19T09:53:52.240Z,79.82
2019-05-19T09:56:20.799Z,79.77
2019-05-19T09:58:49.330Z,77.97
2019-05-19T10:01:17.914Z,75.85
2019-05-19T10:03:46.443Z,72.92
2019-05-19T10:06:15.037Z,70.47
2019-05-19T10:08:46.890Z,70.00
2019-05-19T10:11:53.515Z,71.02
2019-05-19T10:14:22.047Z,69.42
2019-05-19T10:16:50.524Z,66.25
2019-05-19T10:19:19.043Z,70.37
2019-05-19T10:21:47.584Z,69.10
2019-05-19T10:24:16.121Z,68.87
2019-05-19T10:26:44.672Z,68.17
2019-05-19T10:29:14.366Z,69.03
2019-05-19T10:31:42.912Z,68.55
2019-05-19T10:34:11.474Z,72.45
2019-05-19T10:36:39.991Z,73.90
2019-05-19T10:39:08.563Z,73.50
2019-05-19T10:41:37.136Z,76.97
2019-05-19T10:44:05.704Z,75.72
2019-05-19T10:46:34.310Z,75.08
2019-05-19T10:49:04.951Z,74.53
2019-05-19T10:51:33.501Z,76.33
2019-05-19T10:54:02.084Z,71.65
2019-05-19T10:56:30.564Z,78.20
2019-05-19T10:58:59.362Z,67.70
2019-05-19T11:01:27.836Z,66.70
2019-05-19T11:03:56.413Z,64.90
2019-05-19T11:06:25.072Z,61.92
2019-05-19T11:08:53.574Z,61.70
2019-05-19T11:11:22.059Z,62.30
2019-05-19T11:13:50.750Z,56.28
2019-05-19T11:16:20.244Z,50.12
2019-05-19T11:18:48.718Z,55.10
2019-05-19T11:21:17.200Z,54.30
2019-05-19T11:23:45.661Z,51.37
2019-05-19T11:26:14.205Z,52.93
2019-05-19T11:28:42.830Z,50.38
2019-05-19T11:31:11.402Z,50.12
2019-05-19T11:33:39.954Z,52.05
2019-05-19T11:36:08.506Z,52.10
2019-05-19T11:38:37.151Z,50.43
2019-05-19T11:41:05.654Z,52.50
2019-05-19T11:43:34.152Z,54.00
2019-05-19T11:46:02.716Z,51.08
2019-05-19T11:48:31.332Z,49.83
2019-05-19T11:50:59.847Z,50.75
2019-05-19T11:53:28.723Z,50.98
2019-05-19T11:56:06.218Z,51.55
2019-05-19T11:58:27.534Z,51.40
2019-05-19T12:00:56.081Z,50.95
2019-05-19T12:03:24.624Z,50.90
2019-05-19T12:05:53.202Z,47.58
2019-05-19T12:08:21.745Z,48.33
2019-05-19T12:10:50.650Z,51.73
2019-05-19T12:13:19.158Z,52.20
2019-05-19T12:15:47.770Z,49.40
2019-05-19T12:18:16.254Z,48.10
2019-05-19T12:20:44.715Z,43.83
2019-05-19T12:23:13.555Z,47.33
2019-05-19T12:25:42.103Z,43.38
2019-05-19T12:28:11.662Z,42.62
2019-05-19T12:30:40.167Z,44.42
2019-05-19T12:33:08.636Z,40.35
2019-05-19T12:35:37.109Z,37.50
2019-05-19T12:38:05.690Z,40.23
2019-05-19T12:40:34.239Z,37.73
2019-05-19T12:43:02.835Z,39.55
2019-05-19T12:45:31.751Z,42.55
2019-05-19T12:48:05.970Z,39.13
2019-05-19T12:50:34.470Z,39.13
2019-05-19T12:53:05.690Z,37.58
2019-05-19T12:55:34.551Z,40.92
2019-05-19T12:58:03.070Z,36.88
2019-05-19T13:00:31.638Z,39.78
2019-05-19T13:03:00.163Z,40.80
2019-05-19T13:05:28.746Z,38.95
2019-05-19T13:07:57.392Z,39.40
2019-05-19T13:10:27.327Z,40.20
2019-05-19T13:12:55.931Z,38.75
2019-05-19T13:15:24.659Z,38.60
2019-05-19T13:17:53.371Z,37.93
2019-05-19T13:20:22.129Z,37.45
2019-05-19T13:22:50.766Z,40.17
2019-05-19T13:25:19.442Z,38.63
2019-05-19T13:27:48.039Z,37.95
2019-05-19T13:30:16.926Z,33.80
2019-05-19T13:32:45.495Z,37.03
2019-05-19T13:35:14.366Z,38.63
2019-05-19T13:37:43.359Z,37.58
2019-05-19T13:40:12.246Z,38.28
2019-05-19T13:42:41.879Z,38.48
2019-05-19T13:45:12.166Z,39.45
2019-05-19T13:47:40.784Z,38.65
2019-05-19T13:50:10.553Z,40.83
2019-05-19T13:52:39.258Z,39.35
2019-05-19T13:55:08.469Z,41.00
2019-05-19T13:57:37.168Z,42.08
2019-05-19T14:00:07.002Z,37.17
2019-05-19T14:02:36.250Z,42.50
2019-05-19T14:05:05.752Z,40.85
2019-05-19T14:07:34.400Z,40.83
2019-05-19T14:10:03.736Z,44.73
2019-05-19T14:12:32.459Z,41.58
2019-05-19T14:15:04.933Z,41.77
2019-05-19T14:17:33.778Z,40.20
2019-05-19T14:20:02.985Z,41.77
2019-05-19T14:22:31.668Z,40.25
2019-05-19T14:25:01.924Z,44.05
2019-05-19T14:27:31.051Z,42.17
2019-05-19T14:29:59.904Z,44.53
2019-05-19T14:32:28.494Z,43.52
2019-05-19T14:34:57.117Z,47.67
2019-05-19T14:37:25.818Z,42.13
2019-05-19T14:39:55.957Z,43.00
2019-05-19T14:42:42.596Z,49.25
2019-05-19T14:45:30.687Z,44.65
2019-05-19T14:48:06.982Z,43.48
2019-05-19T14:50:35.664Z,45.90
2019-05-19T14:53:06.105Z,47.93
2019-05-19T14:55:55.000Z,50.55
2019-05-19T14:58:39.912Z,49.67
2019-05-19T15:12:14.365Z,50.85
2019-05-19T15:14:46.719Z,46.70
2019-05-19T15:17:31.642Z,48.33
2019-05-19T15:20:09.522Z,50.47
2019-05-19T15:28:04.426Z,49.42
2019-05-19T15:30:32.323Z,49.80
2019-05-19T15:33:01.140Z,50.65
2019-05-19T15:35:29.913Z,49.98
2019-05-19T15:37:58.818Z,49.50
2019-05-19T15:40:27.638Z,52.45
2019-05-19T15:42:57.280Z,52.67
2019-05-19T15:45:25.829Z,51.45
2019-05-19T15:47:54.517Z,56.23
2019-05-19T15:50:23.398Z,58.63
2019-05-19T15:52:51.947Z,54.50
2019-05-19T15:55:21.340Z,53.38
2019-05-19T15:57:49.909Z,51.42
2019-05-19T16:00:20.041Z,55.00
2019-05-19T16:02:48.894Z,59.90
2019-05-19T16:05:17.838Z,58.23
2019-05-19T16:07:46.442Z,59.60
2019-05-19T16:10:16.597Z,57.50
2019-05-19T16:12:45.245Z,60.92
2019-05-19T16:15:14.794Z,59.20
2019-05-19T16:17:45.070Z,63.48
2019-05-19T16:20:14.298Z,63.00
2019-05-19T16:22:43.070Z,61.63
2019-05-19T16:25:11.949Z,63.90
2019-05-19T16:27:40.800Z,61.48
2019-05-19T16:30:10.994Z,65.08
2019-05-19T16:32:39.663Z,62.60
2019-05-19T16:35:08.576Z,63.17
2019-05-19T16:37:37.216Z,64.55
2019-05-19T16:40:06.407Z,65.30
2019-05-19T16:42:34.996Z,66.50
2019-05-19T16:45:05.003Z,68.10
2019-05-19T16:47:33.493Z,67.25
2019-05-19T16:50:02.031Z,61.45
2019-05-19T16:52:30.877Z,68.90
2019-05-19T16:55:01.001Z,66.80
2019-05-19T16:57:29.532Z,65.22
2019-05-19T16:59:58.093Z,63.85
2019-05-19T17:02:26.567Z,56.45
2019-05-19T17:04:55.137Z,65.57
2019-05-19T17:07:23.785Z,61.15
2019-05-19T17:09:52.323Z,62.40
2019-05-19T17:12:20.850Z,59.80
2019-05-19T17:14:49.395Z,62.13
2019-05-19T17:17:18.362Z,57.93
2019-05-19T17:19:46.958Z,61.95
2019-05-19T17:22:15.554Z,54.08
2019-05-19T17:24:44.142Z,59.75
2019-05-19T17:27:12.708Z,56.13
2019-05-19T17:29:41.251Z,60.45
2019-05-19T17:32:09.735Z,60.23
2019-05-19T17:34:38.316Z,59.93
2019-05-19T17:37:06.914Z,60.85
2019-05-19T17:39:35.553Z,59.70
2019-05-19T17:42:04.079Z,61.98
2019-05-19T17:44:32.951Z,61.30
2019-05-19T17:47:01.524Z,59.05
2019-05-19T17:49:30.098Z,56.15
2019-05-19T17:51:58.820Z,59.05
2019-05-19T17:54:27.372Z,60.65
2019-05-19T17:56:58.416Z,70.00
2019-05-19T17:59:26.949Z,69.77
2019-05-19T18:01:55.448Z,66.53
2019-05-19T18:04:23.932Z,71.30
2019-05-19T18:06:52.497Z,72.15
2019-05-19T18:09:21.051Z,68.35
2019-05-19T18:11:49.666Z,70.20
2019-05-19T18:14:18.139Z,74.67
2019-05-19T18:16:46.644Z,74.72
2019-05-19T18:19:16.642Z,76.87
2019-05-19T18:21:45.117Z,73.33
2019-05-19T18:24:13.979Z,85.25
2019-05-19T18:26:42.513Z,91.35
2019-05-19T18:29:14.370Z,88.30
2019-05-19T18:31:43.204Z,81.95
2019-05-19T18:34:11.787Z,84.47
2019-05-19T18:36:40.339Z,76.12
2019-05-19T18:39:10.438Z,71.28
2019-05-19T18:41:38.931Z,79.65
2019-05-19T18:44:07.463Z,77.85
2019-05-19T18:46:36.013Z,81.90
2019-05-19T18:49:04.562Z,78.07
2019-05-19T18:51:33.037Z,84.42
2019-05-19T18:54:01.579Z,83.42
2019-05-19T18:56:30.054Z,80.12
2019-05-19T18:58:58.563Z,86.63
2019-05-19T19:01:27.180Z,87.65
2019-05-19T19:03:55.886Z,84.95
2019-05-19T19:06:26.890Z,90.50
2019-05-19T19:08:57.282Z,89.42
2019-05-19T19:11:25.761Z,99.80
2019-05-19T19:13:54.231Z,100.30
2019-05-19T19:16:22.723Z,105.15
2019-05-19T19:18:51.280Z,103.02
2019-05-19T19:21:19.805Z,93.03
2019-05-19T19:23:48.277Z,88.78
2019-05-19T19:26:17.081Z,90.95
2019-05-19T19:28:45.539Z,93.30
2019-05-19T19:31:14.101Z,99.60
2019-05-19T19:33:42.573Z,95.15
2019-05-19T19:36:11.056Z,105.75
2019-05-19T19:38:39.543Z,131.25
2019-05-19T19:41:08.026Z,137.15
2019-05-19T19:43:36.637Z,127.80
2019-05-19T19:46:05.106Z,125.33
2019-05-19T19:48:33.711Z,125.92
2019-05-19T19:51:02.194Z,136.18
2019-05-19T19:53:30.649Z,131.97
2019-05-19T19:55:59.407Z,134.32
2019-05-19T19:58:27.954Z,129.05
2019-05-19T20:00:56.786Z,127.12
2019-05-19T20:03:25.279Z,137.20
2019-05-19T20:05:53.815Z,131.87
2019-05-19T20:08:22.303Z,142.18
2019-05-19T20:10:50.775Z,137.75
2019-05-19T20:13:19.315Z,138.60
2019-05-19T20:15:47.881Z,147.85
2019-05-19T20:18:16.362Z,153.70
2019-05-19T20:20:45.034Z,139.32
2019-05-19T20:23:13.510Z,155.18
2019-05-19T20:25:41.999Z,155.27
2019-05-19T20:28:10.525Z,157.45
2019-05-19T20:30:39.311Z,145.62
2019-05-19T20:33:07.856Z,145.32
2019-05-19T20:35:36.341Z,145.40
2019-05-19T20:38:05.056Z,151.87
2019-05-19T20:40:33.620Z,167.25
2019-05-19T20:43:02.252Z,178.95
2019-05-19T20:45:30.764Z,198.02
2019-05-19T20:47:59.272Z,171.95
2019-05-19T20:50:27.801Z,183.27
2019-05-19T20:52:57.960Z,177.82
2019-05-19T20:55:26.628Z,150.85
2019-05-19T20:57:55.251Z,153.12
2019-05-19T21:00:26.719Z,145.75
2019-05-19T21:02:55.480Z,144.55
2019-05-19T21:05:24.333Z,150.00
2019-05-19T21:07:52.790Z,138.35
2019-05-19T21:10:21.309Z,144.07
2019-05-19T21:12:52.853Z,130.90
2019-05-19T21:15:20.797Z,142.55
2019-05-19T21:17:49.274Z,144.97
2019-05-19T21:20:17.755Z,148.97
2019-05-19T21:22:46.264Z,143.05
2019-05-19T21:25:14.741Z,146.35
2019-05-19T21:27:43.250Z,142.60
2019-05-19T21:30:11.980Z,149.75
2019-05-19T21:32:40.467Z,132.80
2019-05-19T21:35:09.367Z,143.28
2019-05-19T21:37:37.838Z,137.10
2019-05-19T21:40:07.944Z,137.50
2019-05-19T21:42:36.422Z,138.05
2019-05-19T21:45:07.020Z,138.60
2019-05-19T21:47:35.528Z,124.47
2019-05-19T21:50:06.353Z,129.23
2019-05-19T21:52:34.835Z,132.60
2019-05-19T21:55:05.146Z,146.32
2019-05-19T21:57:33.634Z,129.27
2019-05-19T22:00:02.205Z,140.20
2019-05-19T22:02:30.809Z,144.85
2019-05-19T22:05:01.531Z,135.18
2019-05-19T22:07:33.836Z,141.65
2019-05-19T22:10:02.374Z,142.28
2019-05-19T22:12:30.869Z,149.30
2019-05-19T22:14:59.418Z,137.28
2019-05-19T22:17:27.899Z,145.68
2019-05-19T22:19:56.375Z,146.95
2019-05-19T22:22:24.855Z,152.32
2019-05-19T22:24:54.848Z,142.65
2019-05-19T22:27:23.357Z,145.75
2019-05-19T22:29:51.858Z,150.78
2019-05-19T22:32:20.320Z,143.43
2019-05-19T22:34:49.075Z,144.30
2019-05-19T22:37:17.704Z,136.80
2019-05-19T22:39:48.130Z,140.20
2019-05-19T22:42:16.615Z,139.97
2019-05-19T22:44:45.153Z,131.07
2019-05-19T22:47:13.696Z,142.25
2019-05-19T22:49:42.177Z,136.52
2019-05-19T22:52:10.644Z,139.20
2019-05-19T22:54:39.106Z,138.57
2019-05-19T22:57:07.683Z,137.12
2019-05-19T22:59:38.421Z,134.03
2019-05-19T23:02:09.263Z,118.60
2019-05-19T23:04:37.180Z,123.33
2019-05-19T23:07:05.646Z,110.17
2019-05-19T23:09:34.132Z,115.55
2019-05-19T23:12:02.608Z,113.95
2019-05-19T23:14:31.350Z,111.55
2019-05-19T23:16:59.901Z,118.20
2019-05-19T23:19:28.366Z,110.75
2019-05-19T23:21:56.855Z,102.90
2019-05-19T23:24:25.394Z,95.45
2019-05-19T23:26:53.884Z,88.40
2019-05-19T23:29:22.361Z,95.03
2019-05-19T23:31:50.902Z,89.72
2019-05-19T23:34:19.367Z,86.67
2019-05-19T23:36:47.837Z,82.02
2019-05-19T23:39:16.383Z,92.92
2019-05-19T23:41:44.870Z,81.57
2019-05-19T23:44:13.500Z,94.00
2019-05-19T23:46:42.052Z,81.12
2019-05-19T23:49:10.526Z,74.67
2019-05-19T23:51:39.039Z,87.55
2019-05-19T23:54:10.478Z,84.00
2019-05-19T23:56:38.943Z,79.75
2019-05-19T23:59:07.508Z,69.58
